Time;durP1;ratioP1;P1;durP2;ratioP2;P2;SDS_P1;SDS_P2;PMS_P1;PMS_P2;Temp;Humidity;BMP_temperature;BMP_pressure;BME280_temperature;BME280_humidity;BME280_pressure;Samples;Min_cycle;Max_cycle;Signal;HPM_P1;HPM_P2
2022/04/04 00:00:27;;;;;;;0.30;0.20;;;;;;;7.39;100.00;95356.91;5093210;28;20424;-55
2022/04/04 00:02:56;;;;;;;0.30;0.20;;;;;;;7.65;100.00;95354.28;5093256;28;20436;-55
2022/04/04 00:05:24;;;;;;;0.30;0.20;;;;;;;7.92;100.00;95354.25;5093206;28;20554;-54
2022/04/04 00:07:52;;;;;;;0.30;0.20;;;;;;;8.18;100.00;95348.13;5093477;28;20961;-54
2022/04/04 00:10:21;;;;;;;0.30;0.20;;;;;;;7.82;100.00;95343.59;5092946;28;20644;-54
2022/04/04 00:12:49;;;;;;;0.30;0.20;;;;;;;7.49;100.00;95360.44;5093465;28;20425;-54
2022/04/04 00:15:19;;;;;;;0.30;0.20;;;;;;;7.39;100.00;95360.34;5093051;28;20524;-54
2022/04/04 00:17:48;;;;;;;0.40;0.30;;;;;;;7.28;100.00;95360.50;5093072;28;20429;-54
2022/04/04 00:20:16;;;;;;;0.53;0.53;;;;;;;7.34;100.00;95365.56;5092982;28;20433;-54
2022/04/04 00:22:44;;;;;;;0.30;0.20;;;;;;;7.43;100.00;95364.09;5093024;28;20956;-54
2022/04/04 00:25:13;;;;;;;0.30;0.20;;;;;;;7.86;100.00;95365.81;5092672;28;20559;-54
2022/04/04 00:27:42;;;;;;;0.30;0.20;;;;;;;8.32;100.00;95363.56;5092345;28;20481;-54
2022/04/04 00:30:10;;;;;;;0.30;0.20;;;;;;;7.90;100.00;95369.53;5092784;28;20897;-54
2022/04/04 00:32:41;;;;;;;0.50;0.50;;;;;;;8.13;100.00;95363.13;5092776;28;20877;-54
2022/04/04 00:35:10;;;;;;;0.30;0.20;;;;;;;7.33;100.00;95363.19;5092679;28;20417;-54
2022/04/04 00:37:38;;;;;;;0.30;0.20;;;;;;;7.47;100.00;95378.38;5092621;28;20455;-54
2022/04/04 00:40:08;;;;;;;0.30;0.30;;;;;;;7.87;100.00;95367.41;5092586;28;20478;-54
2022/04/04 00:42:37;;;;;;;0.30;0.20;;;;;;;8.34;100.00;95367.56;5092942;28;20501;-54
2022/04/04 00:45:06;;;;;;;0.30;0.20;;;;;;;8.49;100.00;95367.66;5091992;28;20988;-54
2022/04/04 00:47:34;;;;;;;0.70;0.70;;;;;;;8.51;100.00;95368.19;5092372;28;20458;-54
2022/04/04 00:50:06;;;;;;;1.50;0.80;;;;;;;8.63;100.00;95368.78;5092751;28;20804;-54
2022/04/04 00:52:35;;;;;;;0.30;0.20;;;;;;;7.97;100.00;95379.91;5091928;28;20420;-54
2022/04/04 00:55:03;;;;;;;0.30;0.20;;;;;;;7.74;100.00;95383.66;5092270;28;20421;-54
2022/04/04 00:57:32;;;;;;;0.30;0.20;;;;;;;7.69;100.00;95379.09;5092310;28;20935;-54
2022/04/04 01:00:01;;;;;;;0.30;0.20;;;;;;;8.14;100.00;95376.09;5092563;28;20876;-54
2022/04/04 01:02:29;;;;;;;0.30;0.20;;;;;;;8.20;100.00;95355.78;5092462;28;20428;-54
2022/04/04 01:04:58;;;;;;;0.30;0.20;;;;;;;8.34;100.00;95377.31;5091815;28;20464;-54
2022/04/04 01:07:27;;;;;;;0.30;0.20;;;;;;;8.10;100.00;95364.44;5092149;28;20456;-54
2022/04/04 01:09:56;;;;;;;0.30;0.20;;;;;;;8.23;100.00;95379.84;5091679;28;20521;-54
2022/04/04 01:12:24;;;;;;;0.30;0.20;;;;;;;8.23;100.00;95386.97;5091189;28;20955;-54
2022/04/04 01:14:53;;;;;;;0.30;0.20;;;;;;;7.70;100.00;95345.63;5092021;28;20448;-54
2022/04/04 01:17:24;;;;;;;0.30;0.20;;;;;;;8.05;100.00;95374.16;5091906;28;20428;-54
2022/04/04 01:19:53;;;;;;;0.30;0.20;;;;;;;8.19;100.00;95383.25;5092055;28;20416;-54
2022/04/04 01:22:21;;;;;;;0.30;0.20;;;;;;;8.14;100.00;95383.22;5091890;28;20460;-55
2022/04/04 01:24:51;;;;;;;0.60;0.60;;;;;;;8.20;100.00;95392.75;5091648;28;20467;-54
2022/04/04 01:27:20;;;;;;;0.40;0.30;;;;;;;8.07;100.00;95390.56;5091708;28;20432;-55
2022/04/04 01:29:48;;;;;;;0.40;0.37;;;;;;;7.81;100.00;95394.00;5091803;28;20472;-54
2022/04/04 01:32:17;;;;;;;0.30;0.20;;;;;;;8.08;100.00;95394.78;5091739;28;20429;-54
2022/04/04 01:34:45;;;;;;;0.30;0.20;;;;;;;7.84;100.00;95399.59;5091774;28;20517;-54
2022/04/04 01:37:13;;;;;;;2.40;0.97;;;;;;;7.49;100.00;95402.63;5092006;28;20471;-54
2022/04/04 01:39:43;;;;;;;0.40;0.33;;;;;;;6.85;100.00;95411.38;5091735;28;20425;-54
2022/04/04 01:42:12;;;;;;;0.80;0.70;;;;;;;6.30;100.00;95414.78;5091369;28;21040;-54
2022/04/04 01:44:41;;;;;;;4.20;1.77;;;;;;;6.02;100.00;95424.59;5091432;28;20433;-54
2022/04/04 01:47:10;;;;;;;0.30;0.20;;;;;;;6.19;100.00;95426.19;5091512;28;20996;-54
2022/04/04 01:49:38;;;;;;;0.37;0.30;;;;;;;6.62;100.00;95422.09;5091660;28;20843;-54
2022/04/04 01:52:07;;;;;;;0.30;0.20;;;;;;;7.07;100.00;95417.44;5091476;28;20424;-54
2022/04/04 01:54:35;;;;;;;0.30;0.20;;;;;;;7.56;100.00;95420.94;5091398;28;20941;-54
2022/04/04 01:57:04;;;;;;;0.30;0.20;;;;;;;6.30;100.00;95430.56;5091478;28;20469;-54
2022/04/04 01:59:34;;;;;;;0.30;0.30;;;;;;;6.02;100.00;95428.00;5091420;28;20427;-54
2022/04/04 02:02:02;;;;;;;0.40;0.30;;;;;;;5.95;100.00;95431.81;5091425;28;20450;-54
2022/04/04 02:04:31;;;;;;;0.30;0.20;;;;;;;6.04;100.00;95375.94;5091459;28;20425;-54
2022/04/04 02:06:59;;;;;;;0.33;0.27;;;;;;;6.84;100.00;95430.81;5091480;28;20536;-54
2022/04/04 02:09:28;;;;;;;0.30;0.20;;;;;;;6.68;100.00;95427.19;5091114;28;20514;-54
2022/04/04 02:11:56;;;;;;;0.30;0.20;;;;;;;6.99;100.00;95423.13;5091244;28;20488;-54
2022/04/04 02:14:24;;;;;;;0.30;0.20;;;;;;;7.22;100.00;95422.91;5091640;28;20747;-54
2022/04/04 02:16:54;;;;;;;0.30;0.20;;;;;;;7.24;100.00;95426.09;5091305;28;20785;-54
2022/04/04 02:19:22;;;;;;;0.40;0.30;;;;;;;6.94;100.00;95409.88;5091035;28;20816;-54
2022/04/04 02:21:51;;;;;;;0.30;0.20;;;;;;;7.12;100.00;95435.16;5091026;28;20456;-54
2022/04/04 02:24:19;;;;;;;0.30;0.20;;;;;;;7.24;100.00;95441.09;5094472;28;20460;-54
2022/04/04 02:26:48;;;;;;;0.30;0.20;;;;;;;6.97;100.00;95431.28;5095056;28;21069;-54
2022/04/04 02:29:17;;;;;;;0.30;0.30;;;;;;;6.64;100.00;95435.81;5095156;28;20489;-54
2022/04/04 02:31:45;;;;;;;0.30;0.20;;;;;;;7.01;100.00;95436.84;5095124;28;20948;-54
2022/04/04 02:34:15;;;;;;;0.30;0.20;;;;;;;7.09;100.00;95438.25;5095324;28;20874;-54
2022/04/04 02:36:44;;;;;;;2.60;0.47;;;;;;;6.90;100.00;95427.22;5094996;28;20921;-54
2022/04/04 02:39:12;;;;;;;0.30;0.20;;;;;;;6.85;100.00;95432.44;5095326;28;20429;-55
2022/04/04 02:41:41;;;;;;;0.50;0.50;;;;;;;6.94;100.00;95430.97;5094953;28;20468;-55
2022/04/04 02:44:09;;;;;;;0.40;0.30;;;;;;;7.13;100.00;95424.38;5095289;28;20460;-54
2022/04/04 02:46:38;;;;;;;0.30;0.20;;;;;;;7.17;100.00;95425.47;5095103;28;20532;-54
2022/04/04 02:49:06;;;;;;;0.30;0.20;;;;;;;7.30;100.00;95432.22;5095184;28;20452;-54
2022/04/04 02:51:36;;;;;;;0.30;0.20;;;;;;;7.12;100.00;95420.13;5094745;28;20952;-54
2022/04/04 02:54:04;;;;;;;0.30;0.20;;;;;;;6.93;100.00;95424.88;5094664;28;20482;-54
2022/04/04 02:56:32;;;;;;;1.03;1.03;;;;;;;7.02;100.00;95425.28;5094682;28;20408;-54
2022/04/04 02:59:01;;;;;;;0.30;0.20;;;;;;;6.86;100.00;95428.75;5094392;28;20432;-54
2022/04/04 03:01:30;;;;;;;0.30;0.20;;;;;;;6.34;100.00;95438.78;5094825;28;20432;-54
2022/04/04 03:03:59;;;;;;;0.30;0.20;;;;;;;6.64;100.00;95427.91;5094934;28;20424;-54
2022/04/04 03:06:28;;;;;;;0.30;0.20;;;;;;;6.64;100.00;95433.97;5094421;28;20460;-55
2022/04/04 03:08:58;;;;;;;0.30;0.20;;;;;;;6.85;100.00;95437.69;5094203;28;20894;-55
2022/04/04 03:11:26;;;;;;;0.60;0.40;;;;;;;6.73;100.00;95435.16;5094441;28;20416;-55
2022/04/04 03:13:55;;;;;;;0.30;0.20;;;;;;;5.98;100.00;95337.44;5094203;28;20432;-55
2022/04/04 03:16:23;;;;;;;0.30;0.20;;;;;;;6.39;100.00;95429.13;5094187;28;20432;-55
2022/04/04 03:18:54;;;;;;;0.40;0.40;;;;;;;6.40;100.00;95435.19;5094124;28;20471;-55
2022/04/04 03:21:23;;;;;;;0.50;0.43;;;;;;;5.76;100.00;95442.53;5094100;28;20838;-55
2022/04/04 03:23:51;;;;;;;0.30;0.20;;;;;;;5.62;100.00;95441.19;5094052;28;20413;-55
2022/04/04 03:26:21;;;;;;;0.60;0.40;;;;;;;5.18;100.00;95436.66;5094150;28;20472;-55
2022/04/04 03:28:50;;;;;;;0.30;0.20;;;;;;;5.39;100.00;95451.00;5094384;28;20516;-55
2022/04/04 03:31:18;;;;;;;0.40;0.40;;;;;;;5.74;100.00;95452.47;5093966;28;20482;-55
2022/04/04 03:33:46;;;;;;;0.30;0.20;;;;;;;5.95;100.00;95448.38;5093934;28;20554;-55
2022/04/04 03:36:15;;;;;;;0.30;0.30;;;;;;;6.06;100.00;95457.25;5093084;28;20432;-55
2022/04/04 03:38:43;;;;;;;0.30;0.20;;;;;;;5.90;100.00;95453.56;5093614;28;20928;-55
2022/04/04 03:41:12;;;;;;;0.30;0.20;;;;;;;6.03;100.00;95453.28;5093645;28;20438;-55
2022/04/04 03:43:42;;;;;;;0.30;0.20;;;;;;;6.11;100.00;95468.69;5093819;28;20917;-55
2022/04/04 03:46:11;;;;;;;0.30;0.20;;;;;;;6.09;100.00;95469.94;5093434;28;20440;-55
2022/04/04 03:48:40;;;;;;;0.40;0.30;;;;;;;6.14;100.00;95473.47;5093967;28;20427;-56
2022/04/04 03:51:10;;;;;;;0.30;0.20;;;;;;;6.06;100.00;95476.47;5093602;28;20515;-55
2022/04/04 03:53:39;;;;;;;0.30;0.20;;;;;;;6.01;100.00;95478.22;5093589;28;20890;-56
2022/04/04 03:56:07;;;;;;;1.07;1.07;;;;;;;5.72;100.00;95486.09;5093784;28;20453;-55
2022/04/04 03:58:36;;;;;;;0.60;0.37;;;;;;;5.34;100.00;95487.72;5093382;28;20439;-55
2022/04/04 04:01:06;;;;;;;0.50;0.50;;;;;;;4.69;100.00;95495.75;5093086;28;20464;-55
2022/04/04 04:03:36;;;;;;;0.83;0.50;;;;;;;4.87;100.00;95498.28;5093390;28;20476;-55
2022/04/04 04:06:16;;;;;;;0.93;0.40;;;;;;;4.47;100.00;95513.88;5093451;28;20489;-55
2022/04/04 04:08:46;;;;;;;0.30;0.20;;;;;;;4.36;100.00;95512.03;5092972;28;20424;-55
2022/04/04 04:11:17;;;;;;;0.30;0.20;;;;;;;4.26;100.00;95519.66;5093087;28;21000;-55
2022/04/04 04:13:46;;;;;;;0.30;0.20;;;;;;;3.91;100.00;95533.69;5093158;28;20476;-56
2022/04/04 04:16:16;;;;;;;0.30;0.20;;;;;;;3.98;100.00;95539.63;5093284;28;20505;-54
2022/04/04 04:18:44;;;;;;;0.30;0.20;;;;;;;4.09;100.00;95546.75;5092947;28;20963;-54
2022/04/04 04:21:13;;;;;;;0.50;0.50;;;;;;;4.46;100.00;95540.34;5092477;28;20516;-55
2022/04/04 04:23:44;;;;;;;0.30;0.30;;;;;;;4.93;100.00;95551.72;5092607;28;20455;-54
2022/04/04 04:26:13;;;;;;;0.40;0.20;;;;;;;5.04;100.00;95545.63;5092711;28;20485;-55
2022/04/04 04:28:43;;;;;;;0.40;0.30;;;;;;;5.36;100.00;95549.53;5092858;28;20457;-55
2022/04/04 04:31:12;;;;;;;0.50;0.50;;;;;;;5.41;100.00;95543.56;5093103;28;20485;-55
2022/04/04 04:33:42;;;;;;;0.30;0.20;;;;;;;5.42;100.00;95553.03;5092576;28;20432;-55
2022/04/04 04:36:10;;;;;;;0.30;0.20;;;;;;;5.37;100.00;95548.47;5092959;28;20740;-55
2022/04/04 04:38:39;;;;;;;0.37;0.27;;;;;;;5.33;100.00;95560.50;5092547;28;20515;-55
2022/04/04 04:41:07;;;;;;;0.30;0.20;;;;;;;5.67;100.00;95559.63;5092567;28;20417;-55
2022/04/04 04:43:35;;;;;;;0.30;0.20;;;;;;;5.73;100.00;95545.56;5092393;28;20519;-55
2022/04/04 04:46:04;;;;;;;0.30;0.20;;;;;;;5.86;100.00;95562.91;5092448;28;20820;-54
2022/04/04 04:48:32;;;;;;;0.30;0.20;;;;;;;5.99;100.00;95554.75;5092577;28;20550;-55
2022/04/04 04:51:02;;;;;;;0.30;0.20;;;;;;;5.98;100.00;95558.41;5092341;28;20471;-54
2022/04/04 04:53:31;;;;;;;0.50;0.50;;;;;;;5.62;100.00;95572.66;5092176;28;20447;-55
2022/04/04 04:55:59;;;;;;;2.93;0.50;;;;;;;5.51;100.00;95570.88;5092250;28;20420;-55
2022/04/04 04:58:28;;;;;;;0.30;0.20;;;;;;;5.62;100.00;95577.91;5091707;28;20424;-55
2022/04/04 05:00:56;;;;;;;0.40;0.30;;;;;;;5.99;100.00;95581.06;5092163;28;20440;-55
2022/04/04 05:03:27;;;;;;;0.77;0.77;;;;;;;6.24;100.00;95575.47;5092438;28;20511;-54
2022/04/04 05:05:56;;;;;;;0.43;0.43;;;;;;;6.55;100.00;95582.09;5092282;28;20501;-55
2022/04/04 05:08:26;;;;;;;0.33;0.27;;;;;;;6.62;100.00;95582.72;5091909;28;20984;-55
2022/04/04 05:10:54;;;;;;;0.30;0.20;;;;;;;6.82;100.00;95590.97;5090990;28;20464;-55
2022/04/04 05:13:22;;;;;;;0.40;0.30;;;;;;;6.09;100.00;95580.47;5091878;28;21069;-55
2022/04/04 05:15:51;;;;;;;0.40;0.20;;;;;;;6.25;100.00;95585.75;5091940;28;20462;-55
2022/04/04 05:18:20;;;;;;;0.40;0.30;;;;;;;6.53;100.00;95584.16;5091682;28;20482;-55
2022/04/04 05:20:48;;;;;;;0.60;0.60;;;;;;;6.31;100.00;95555.06;5092019;28;20412;-55
2022/04/04 05:23:16;;;;;;;1.53;1.43;;;;;;;6.28;100.00;95587.13;5091851;28;20428;-55
2022/04/04 05:25:47;;;;;;;0.97;0.97;;;;;;;6.72;100.00;95594.25;5092230;28;20857;-55
2022/04/04 05:28:15;;;;;;;3.03;1.00;;;;;;;6.69;100.00;95594.72;5091761;28;20924;-55
2022/04/04 05:30:44;;;;;;;0.53;0.50;;;;;;;7.04;100.00;95599.75;5091801;28;20470;-55
2022/04/04 05:33:14;;;;;;;0.50;0.47;;;;;;;7.37;100.00;95599.72;5091428;28;20973;-55
2022/04/04 05:35:43;;;;;;;0.40;0.30;;;;;;;7.43;100.00;95596.16;5091083;28;20436;-55
2022/04/04 05:38:13;;;;;;;0.47;0.47;;;;;;;7.55;100.00;95596.03;5091706;28;20428;-54
2022/04/04 05:40:41;;;;;;;0.40;0.30;;;;;;;7.75;100.00;95601.56;5091589;28;20468;-54
2022/04/04 05:43:11;;;;;;;0.40;0.30;;;;;;;7.93;100.00;95597.84;5091714;28;20452;-54
2022/04/04 05:45:39;;;;;;;0.60;0.60;;;;;;;8.01;100.00;95594.78;5091486;28;20971;-54
2022/04/04 05:48:08;;;;;;;0.40;0.33;;;;;;;7.58;100.00;95538.31;5091510;28;20460;-55
2022/04/04 05:50:37;;;;;;;0.50;0.50;;;;;;;7.96;100.00;95602.63;5091644;28;20485;-55
2022/04/04 05:53:05;;;;;;;0.57;0.57;;;;;;;8.10;100.00;95598.56;5091423;28;20464;-55
2022/04/04 05:55:33;;;;;;;0.97;0.97;;;;;;;8.59;100.00;95613.41;5091650;28;20964;-55
2022/04/04 05:58:02;;;;;;;2.00;0.63;;;;;;;8.95;100.00;95610.03;5092378;28;21105;-55
2022/04/04 06:00:32;;;;;;;1.33;0.50;;;;;;;9.27;97.55;95606.59;5096111;28;20448;-55
2022/04/04 06:03:01;;;;;;;0.50;0.40;;;;;;;8.80;98.09;95601.97;5095821;28;20432;-54
2022/04/04 06:05:30;;;;;;;0.90;0.87;;;;;;;9.36;98.19;95613.03;5095945;28;20417;-55
2022/04/04 06:07:59;;;;;;;0.30;0.20;;;;;;;8.02;98.18;95417.69;5095182;28;20468;-55
2022/04/04 06:10:28;;;;;;;0.30;0.20;;;;;;;9.52;92.50;95604.94;5094379;28;20548;-54
2022/04/04 06:12:56;;;;;;;0.40;0.30;;;;;;;10.06;90.20;95602.84;5095194;28;20501;-55
2022/04/04 06:15:24;;;;;;;1.03;0.93;;;;;;;10.47;90.30;95603.00;5095547;28;20515;-54
2022/04/04 06:17:54;;;;;;;0.97;0.97;;;;;;;10.29;87.97;95606.13;5095244;28;20512;-54
2022/04/04 06:20:23;;;;;;;0.40;0.40;;;;;;;10.70;87.83;95594.59;5095018;28;20433;-54
2022/04/04 06:22:52;;;;;;;20.63;2.70;;;;;;;10.73;85.12;95601.97;5095011;28;21005;-54
2022/04/04 06:25:21;;;;;;;0.80;0.80;;;;;;;10.67;88.14;95603.84;5095300;28;20460;-54
2022/04/04 06:27:50;;;;;;;3.30;0.73;;;;;;;10.27;84.65;95602.94;5095214;28;20498;-54
2022/04/04 06:30:18;;;;;;;1.90;1.80;;;;;;;11.15;85.35;95601.78;5095083;28;20433;-54
2022/04/04 06:32:47;;;;;;;1.17;1.17;;;;;;;10.88;79.89;95609.19;5094763;28;20518;-54
2022/04/04 06:35:17;;;;;;;0.40;0.40;;;;;;;10.80;82.65;95613.16;5094579;28;20447;-55
2022/04/04 06:37:47;;;;;;;0.40;0.40;;;;;;;11.62;80.13;95604.91;5094721;28;20424;-54
2022/04/04 06:40:15;;;;;;;1.83;0.50;;;;;;;10.94;85.47;95608.13;5094574;28;20440;-53
2022/04/04 06:42:45;;;;;;;0.70;0.70;;;;;;;10.08;83.04;95523.13;5094783;28;20438;-54
2022/04/04 06:45:17;;;;;;;2.67;0.87;;;;;;;10.58;80.82;95576.25;5094867;28;20858;-53
2022/04/04 06:47:45;;;;;;;2.43;0.73;;;;;;;10.98;75.42;95615.28;5094004;28;20424;-54
2022/04/04 06:50:14;;;;;;;0.87;0.50;;;;;;;9.49;77.02;95448.53;5094746;28;20429;-54
2022/04/04 06:52:45;;;;;;;0.40;0.30;;;;;;;11.34;74.58;95621.41;5094470;28;20642;-54
2022/04/04 06:55:33;;;;;;;4.53;1.20;;;;;;;10.88;78.07;95625.88;5094183;28;20440;-54
2022/04/04 06:58:02;;;;;;;0.40;0.33;;;;;;;10.20;89.33;95624.34;5094633;28;20468;-54
2022/04/04 07:00:30;;;;;;;0.47;0.40;;;;;;;11.07;89.50;95632.28;5093977;28;20436;-53
2022/04/04 07:02:59;;;;;;;1.73;1.63;;;;;;;11.99;77.07;95625.84;5094398;28;20425;-55
2022/04/04 07:05:28;;;;;;;0.70;0.50;;;;;;;12.17;77.52;95630.56;5094431;28;20424;-54
2022/04/04 07:07:57;;;;;;;0.70;0.70;;;;;;;11.61;80.72;95626.44;5094243;28;20519;-54
2022/04/04 07:10:27;;;;;;;1.20;1.20;;;;;;;12.49;73.08;95624.88;5092897;28;20525;-53
2022/04/04 07:12:55;;;;;;;2.90;0.50;;;;;;;11.93;74.25;95626.94;5094491;28;20424;-55
2022/04/04 07:15:24;;;;;;;0.63;0.63;;;;;;;11.45;79.37;95629.09;5094567;28;20790;-54
2022/04/04 07:17:52;;;;;;;0.40;0.30;;;;;;;11.63;80.51;95630.41;5094292;28;20517;-54
2022/04/04 07:20:21;;;;;;;0.73;0.67;;;;;;;11.47;74.02;95629.63;5094447;28;20490;-55
2022/04/04 07:22:49;;;;;;;0.40;0.37;;;;;;;10.72;68.55;95542.09;5093724;28;20428;-54
2022/04/04 07:25:21;;;;;;;1.80;0.80;;;;;;;11.93;72.00;95632.25;5094144;28;20456;-55
2022/04/04 07:27:49;;;;;;;0.40;0.40;;;;;;;12.04;62.68;95634.59;5094270;28;21034;-54
2022/04/04 07:30:20;;;;;;;1.23;1.23;;;;;;;12.27;62.97;95630.53;5094054;28;20980;-55
2022/04/04 07:32:49;;;;;;;0.30;0.30;;;;;;;11.47;61.17;95520.00;5094009;28;20437;-55
2022/04/04 07:35:19;;;;;;;0.80;0.40;;;;;;;12.48;64.08;95637.34;5093710;28;21046;-54
2022/04/04 07:37:50;;;;;;;0.40;0.40;;;;;;;12.34;60.30;95628.38;5093806;28;20460;-54
2022/04/04 07:40:21;;;;;;;0.40;0.40;;;;;;;12.20;61.04;95631.88;5093789;28;20428;-54
2022/04/04 07:42:51;;;;;;;0.43;0.30;;;;;;;13.38;60.05;95621.94;5093672;28;20481;-54
2022/04/04 07:45:20;;;;;;;0.50;0.40;;;;;;;13.04;55.76;95615.75;5093742;28;20980;-54
2022/04/04 07:47:50;;;;;;;0.40;0.30;;;;;;;13.15;53.02;95626.09;5093005;28;20432;-56
2022/04/04 07:50:19;;;;;;;0.40;0.40;;;;;;;12.97;53.11;95625.91;5093744;28;20526;-56
2022/04/04 07:52:48;;;;;;;0.77;0.57;;;;;;;14.19;49.24;95623.81;5093771;28;20863;-55
2022/04/04 07:55:18;;;;;;;0.50;0.40;;;;;;;13.35;49.55;95628.59;5093459;28;20483;-56
2022/04/04 07:57:48;;;;;;;0.40;0.30;;;;;;;12.99;50.75;95635.22;5093646;28;20428;-55
2022/04/04 08:00:18;;;;;;;1.57;1.47;;;;;;;13.85;48.62;95630.00;5093443;28;20527;-54
2022/04/04 08:02:46;;;;;;;0.30;0.27;;;;;;;13.56;49.00;95626.53;5093262;28;20432;-57
2022/04/04 08:05:16;;;;;;;2.30;1.93;;;;;;;13.44;49.64;95623.47;5093634;28;20425;-56
2022/04/04 08:07:47;;;;;;;0.30;0.30;;;;;;;12.93;49.93;95624.91;5093311;28;20467;-55
2022/04/04 08:10:17;;;;;;;0.53;0.53;;;;;;;13.45;48.23;95614.41;5092918;28;20495;-56
2022/04/04 08:12:47;;;;;;;0.30;0.30;;;;;;;13.47;46.60;95604.25;5092613;28;20432;-57
2022/04/04 08:15:15;;;;;;;0.40;0.33;;;;;;;13.93;45.67;95604.63;5093130;28;20448;-56
2022/04/04 08:17:44;;;;;;;0.43;0.40;;;;;;;14.09;46.93;95605.25;5092901;28;20515;-56
2022/04/04 08:20:13;;;;;;;0.40;0.30;;;;;;;14.54;45.65;95591.41;5092853;28;20433;-55
2022/04/04 08:22:43;;;;;;;0.40;0.30;;;;;;;14.71;44.87;95597.03;5093084;28;20428;-55
2022/04/04 08:25:13;;;;;;;0.67;0.67;;;;;;;13.85;44.71;95606.03;5093133;28;20810;-56
2022/04/04 08:27:43;;;;;;;0.30;0.20;;;;;;;14.19;44.43;95597.94;5092916;28;20417;-56
2022/04/04 08:30:16;;;;;;;0.50;0.50;;;;;;;14.69;43.90;95593.88;5092608;28;20471;-55
2022/04/04 08:32:45;;;;;;;0.50;0.50;;;;;;;14.18;42.14;95592.88;5092894;28;20581;-55
2022/04/04 08:35:15;;;;;;;0.37;0.30;;;;;;;14.16;43.47;95595.84;5092597;28;20464;-54
2022/04/04 08:37:44;;;;;;;0.47;0.47;;;;;;;14.98;43.86;95599.84;5091983;28;20932;-56
2022/04/04 08:40:18;;;;;;;0.40;0.30;;;;;;;14.58;42.62;95589.72;5092554;28;20957;-53
2022/04/04 08:42:47;;;;;;;0.43;0.30;;;;;;;15.07;41.90;95590.09;5092946;28;21093;-55
2022/04/04 08:45:16;;;;;;;0.40;0.30;;;;;;;16.10;41.33;95583.53;5092504;28;20509;-55
2022/04/04 08:47:46;;;;;;;0.30;0.20;;;;;;;16.23;39.89;95572.03;5092564;28;20454;-56
2022/04/04 08:50:14;;;;;;;0.30;0.20;;;;;;;15.40;39.57;95571.41;5092392;28;20508;-56
2022/04/04 08:52:44;;;;;;;0.40;0.30;;;;;;;15.12;41.49;95558.00;5092270;28;20520;-54
2022/04/04 08:55:15;;;;;;;0.40;0.30;;;;;;;15.72;39.75;95534.78;5092653;28;20491;-56
2022/04/04 08:57:44;;;;;;;0.40;0.30;;;;;;;15.24;40.25;95565.53;5092599;28;20444;-55
2022/04/04 09:00:13;;;;;;;0.53;0.37;;;;;;;15.86;40.65;95554.31;5092221;28;20466;-55
2022/04/04 09:03:02;;;;;;;1.17;1.10;;;;;;;16.12;39.33;95572.53;5092481;28;20432;-57
2022/04/04 09:05:33;;;;;;;0.40;0.23;;;;;;;17.80;36.83;95557.75;5092331;28;20424;-58
2022/04/04 09:08:05;;;;;;;0.40;0.30;;;;;;;17.54;38.55;95554.91;5092421;28;20512;-55
2022/04/04 09:10:40;;;;;;;0.53;0.50;;;;;;;17.65;39.12;95510.69;5091583;28;20545;-61
2022/04/04 09:13:13;;;;;;;0.40;0.40;;;;;;;17.62;38.47;95554.97;5092458;28;20799;-61
2022/04/04 09:16:01;;;;;;;0.40;0.40;;;;;;;17.84;40.45;95554.13;5092447;28;20463;-61
2022/04/04 09:18:50;;;;;;;0.40;0.30;;;;;;;16.91;39.01;95555.09;5092281;28;21002;-63
2022/04/04 09:21:33;;;;;;;0.40;0.30;;;;;;;15.70;38.85;95515.59;5092077;28;20515;-64
2022/04/04 09:24:07;;;;;;;0.40;0.40;;;;;;;16.21;40.57;95554.72;5091351;28;20427;-63
2022/04/04 09:26:40;;;;;;;0.50;0.50;;;;;;;16.90;39.48;95534.78;5091854;28;20497;-61
2022/04/04 09:29:10;;;;;;;0.60;0.33;;;;;;;16.95;37.90;95527.38;5092161;28;20844;-61
2022/04/04 09:31:53;;;;;;;0.40;0.30;;;;;;;15.62;39.92;95537.66;5091828;28;20424;-60
2022/04/04 09:34:23;;;;;;;0.40;0.30;;;;;;;15.19;40.30;95537.03;5091259;28;20538;-59
2022/04/04 09:36:52;;;;;;;0.30;0.20;;;;;;;15.71;42.09;95527.09;5091777;28;20425;-57
2022/04/04 09:39:20;;;;;;;0.40;0.30;;;;;;;15.48;39.73;95533.38;5091747;28;20489;-57
2022/04/04 09:41:49;;;;;;;0.40;0.30;;;;;;;15.31;40.95;95519.75;5091664;28;20448;-57
2022/04/04 09:44:25;;;;;;;0.40;0.40;;;;;;;15.78;40.92;95522.94;5091701;28;20943;-57
2022/04/04 09:46:54;;;;;;;0.40;0.40;;;;;;;15.87;39.02;95510.47;5091719;28;20416;-59
2022/04/04 09:49:24;;;;;;;0.40;0.30;;;;;;;15.68;39.09;95503.63;5091768;28;20455;-59
2022/04/04 09:51:54;;;;;;;0.30;0.20;;;;;;;15.14;40.46;95496.28;5091971;28;20879;-59
2022/04/04 09:54:26;;;;;;;0.30;0.20;;;;;;;16.61;38.44;95454.88;5091578;28;20978;-59
2022/04/04 09:56:57;;;;;;;0.40;0.37;;;;;;;16.68;37.03;95475.84;5091722;28;20436;-61
2022/04/04 09:59:31;;;;;;;0.40;0.30;;;;;;;16.50;37.90;95475.69;5091637;28;20463;-63
2022/04/04 10:02:00;;;;;;;0.30;0.30;;;;;;;15.52;38.80;95480.94;5091742;28;20467;-61
2022/04/04 10:04:32;;;;;;;0.40;0.30;;;;;;;16.12;40.65;95479.72;5091573;28;20421;-61
2022/04/04 10:07:04;;;;;;;8.77;0.40;;;;;;;16.30;38.81;95467.31;5091593;28;20462;-60
2022/04/04 10:09:34;;;;;;;0.40;0.30;;;;;;;16.41;39.92;95464.13;5091319;28;21011;-59
2022/04/04 10:12:03;;;;;;;0.30;0.20;;;;;;;15.63;39.80;95461.78;5091754;28;20432;-58
2022/04/04 10:14:36;;;;;;;0.30;0.20;;;;;;;15.89;39.68;95462.81;5091604;28;20428;-58
2022/04/04 10:17:05;;;;;;;2.00;0.93;;;;;;;16.91;41.07;95459.50;5091689;28;20416;-58
2022/04/04 10:19:35;;;;;;;0.40;0.30;;;;;;;17.47;39.20;95453.50;5091801;28;20452;-58
2022/04/04 10:22:04;;;;;;;0.40;0.30;;;;;;;17.43;39.18;95441.81;5091731;28;20443;-57
2022/04/04 10:24:36;;;;;;;0.30;0.30;;;;;;;17.07;37.95;95443.84;5091393;28;20420;-58
2022/04/04 10:27:12;;;;;;;2.20;0.30;;;;;;;17.22;40.38;95430.06;5091207;28;20446;-58
2022/04/04 10:29:44;;;;;;;0.30;0.20;;;;;;;16.82;39.36;95433.78;5091564;28;20424;-58
2022/04/04 10:32:23;;;;;;;0.37;0.27;;;;;;;17.43;39.84;95433.00;5091342;28;20447;-58
2022/04/04 10:34:53;;;;;;;0.30;0.20;;;;;;;16.46;41.92;95383.75;5091559;28;20435;-57
2022/04/04 10:37:26;;;;;;;0.50;0.30;;;;;;;16.98;41.55;95434.94;5091434;28;20453;-57
2022/04/04 10:39:55;;;;;;;0.30;0.20;;;;;;;16.94;42.95;95432.13;5091618;28;20413;-60
2022/04/04 10:42:31;;;;;;;0.30;0.20;;;;;;;17.67;39.72;95431.53;5091232;28;20484;-59
2022/04/04 10:45:06;;;;;;;0.30;0.20;;;;;;;17.71;37.72;95431.69;5093617;28;20500;-57
2022/04/04 10:47:36;;;;;;;0.33;0.20;;;;;;;18.20;39.24;95430.53;5094850;28;20489;-58
2022/04/04 10:50:21;;;;;;;0.40;0.30;;;;;;;17.27;37.28;95429.94;5094728;28;20464;-58
2022/04/04 10:52:52;;;;;;;0.40;0.30;;;;;;;16.45;39.60;95421.50;5094912;28;20428;-56
2022/04/04 10:55:41;;;;;;;0.30;0.20;;;;;;;17.04;39.05;95439.91;5094738;28;20440;-56
2022/04/04 10:58:20;;;;;;;0.30;0.20;;;;;;;16.46;41.44;95429.22;5095106;28;20432;-58
2022/04/04 11:01:14;;;;;;;0.40;0.30;;;;;;;16.98;39.69;95421.56;5094727;28;20431;-56
2022/04/04 11:03:58;;;;;;;0.40;0.30;;;;;;;16.32;38.24;95368.84;5092893;28;20532;-57
2022/04/04 11:09:32;;;;;;;1.37;1.27;;;;;;;17.21;40.13;95415.06;5094191;28;20483;-59
2022/04/04 11:12:13;;;;;;;0.93;0.93;;;;;;;16.86;36.05;95378.50;5094313;28;20472;-61
2022/04/04 11:14:54;;;;;;;0.30;0.20;;;;;;;17.34;35.09;95349.91;5094592;28;20477;-61
2022/04/04 11:17:38;;;;;;;0.60;0.40;;;;;;;18.02;38.00;95405.59;5094453;28;20955;-62
2022/04/04 11:20:21;;;;;;;0.50;0.50;;;;;;;17.96;38.21;95401.47;5093108;28;20424;-62
2022/04/04 11:22:55;;;;;;;0.40;0.33;;;;;;;18.81;35.54;95397.25;5094195;28;20434;-64
2022/04/04 11:25:27;;;;;;;0.50;0.50;;;;;;;17.65;35.24;95385.50;5094313;28;20835;-62
2022/04/04 11:27:57;;;;;;;0.40;0.40;;;;;;;17.15;35.36;95398.34;5094331;28;20477;-64
2022/04/04 11:30:26;;;;;;;0.30;0.30;;;;;;;18.87;33.98;95391.38;5093952;28;20861;-64
2022/04/04 11:32:57;;;;;;;0.30;0.20;;;;;;;19.92;33.56;95387.97;5093496;28;20838;-64
2022/04/04 11:35:27;;;;;;;0.40;0.30;;;;;;;19.71;34.80;95398.69;5093107;28;20939;-64
2022/04/04 11:37:59;;;;;;;0.70;0.40;;;;;;;18.26;32.69;95389.06;5093702;28;20502;-64
2022/04/04 11:40:33;;;;;;;0.40;0.30;;;;;;;18.83;31.71;95379.72;5093659;28;20468;-63
2022/04/04 11:43:06;;;;;;;0.60;0.60;;;;;;;19.11;33.63;95372.03;5093943;28;20423;-63
2022/04/04 11:45:36;;;;;;;0.50;0.43;;;;;;;19.14;31.65;95375.97;5093882;28;20779;-62
2022/04/04 11:48:10;;;;;;;0.30;0.30;;;;;;;20.56;29.45;95361.56;5093727;28;20420;-62
2022/04/04 11:50:40;;;;;;;1.60;1.37;;;;;;;20.19;29.40;95256.38;5093103;28;20463;-62